Time;durP1;ratioP1;P1;durP2;ratioP2;P2;SDS_P1;SDS_P2;PMS_P1;PMS_P2;Temp;Humidity;BMP_temperature;BMP_pressure;BME280_temperature;BME280_humidity;BME280_pressure;Samples;Min_cycle;Max_cycle;Signal;HPM_P1;HPM_P2
2022/04/09 00:02:19;;;;;;;17.67;2.80;;;4.50;99.90;;;;;;5052996;28;20044;-53
2022/04/09 00:04:44;;;;;;;13.60;2.40;;;4.50;99.90;;;;;;5052169;28;20037;-61
2022/04/09 00:07:10;;;;;;;13.65;2.58;;;4.50;99.90;;;;;;5052187;28;20528;-54
2022/04/09 00:09:35;;;;;;;9.48;2.30;;;4.50;99.90;;;;;;5051016;28;20037;-54
2022/04/09 00:12:02;;;;;;;12.35;2.25;;;4.40;99.90;;;;;;5052989;28;20045;-55
2022/04/09 00:14:27;;;;;;;8.13;2.30;;;4.40;99.90;;;;;;5026081;28;20099;-55
2022/04/09 00:16:53;;;;;;;10.98;2.67;;;4.30;99.90;;;;;;5049399;28;20044;-54
2022/04/09 00:19:19;;;;;;;11.63;1.90;;;4.30;99.90;;;;;;5052880;28;20098;-54
2022/04/09 00:21:46;;;;;;;9.63;2.10;;;4.30;99.90;;;;;;5052278;28;20041;-55
2022/04/09 00:24:12;;;;;;;11.43;2.70;;;4.20;99.90;;;;;;5051616;28;20370;-55
2022/04/09 00:26:38;;;;;;;9.05;1.95;;;4.20;99.90;;;;;;5052509;28;20079;-54
2022/04/09 00:29:04;;;;;;;9.82;1.70;;;4.20;99.90;;;;;;5049372;28;20088;-55
2022/04/09 00:31:29;;;;;;;14.15;2.78;;;4.20;99.90;;;;;;5042018;28;20041;-55
2022/04/09 00:33:54;;;;;;;7.93;2.00;;;4.20;99.90;;;;;;5052437;28;20036;-55
2022/04/09 00:36:20;;;;;;;7.72;2.50;;;4.20;99.90;;;;;;5051717;28;20068;-55
2022/04/09 00:38:46;;;;;;;11.68;2.03;;;4.10;99.90;;;;;;5050212;28;20039;-53
2022/04/09 00:41:11;;;;;;;17.98;2.63;;;4.10;99.90;;;;;;5048936;28;20044;-55
2022/04/09 00:43:41;;;;;;;11.73;2.10;;;4.10;99.90;;;;;;5052001;28;20037;-54
2022/04/09 00:46:07;;;;;;;10.10;2.33;;;4.10;99.90;;;;;;5051027;28;20029;-55
2022/04/09 00:48:35;;;;;;;12.65;2.88;;;4.10;99.90;;;;;;5052550;28;20037;-54
2022/04/09 00:51:01;;;;;;;13.80;2.85;;;4.20;99.90;;;;;;5051608;28;20436;-55
2022/04/09 00:53:30;;;;;;;13.32;3.22;;;4.20;99.90;;;;;;5052409;28;20037;-55
2022/04/09 00:56:15;;;;;;;11.65;2.47;;;4.30;99.90;;;;;;5051631;28;20076;-55
2022/04/09 00:58:48;;;;;;;9.30;1.90;;;4.40;99.90;;;;;;5051889;28;20049;-52
2022/04/09 01:01:15;;;;;;;13.05;2.15;;;4.40;99.90;;;;;;5042954;28;20465;-55
2022/04/09 01:03:41;;;;;;;9.70;2.22;;;4.40;99.90;;;;;;5032626;28;20038;-59
2022/04/09 01:06:08;;;;;;;11.13;2.20;;;4.50;99.90;;;;;;5032008;28;20038;-54
2022/04/09 01:08:34;;;;;;;8.90;1.80;;;4.50;99.90;;;;;;5014964;28;20069;-55
2022/04/09 01:11:00;;;;;;;10.20;2.00;;;4.50;99.90;;;;;;5043250;28;20083;-55
2022/04/09 01:13:25;;;;;;;10.63;2.17;;;4.50;99.90;;;;;;5051986;28;20047;-55
2022/04/09 01:15:51;;;;;;;11.18;2.30;;;4.40;99.90;;;;;;5050455;28;20489;-55
2022/04/09 01:18:18;;;;;;;6.80;2.08;;;4.50;99.90;;;;;;5052028;28;20036;-55
2022/04/09 01:20:44;;;;;;;10.65;2.00;;;4.40;99.90;;;;;;5051413;28;20204;-55
2022/04/09 01:23:09;;;;;;;9.80;1.83;;;4.50;99.90;;;;;;5051378;28;20045;-56
2022/04/09 01:25:37;;;;;;;11.70;2.10;;;4.40;99.90;;;;;;5034435;28;20041;-56
2022/04/09 01:28:04;;;;;;;8.43;1.65;;;4.50;99.90;;;;;;5035364;28;20043;-55
2022/04/09 01:30:29;;;;;;;9.45;2.05;;;4.50;99.90;;;;;;5049833;28;20053;-55
2022/04/09 01:32:55;;;;;;;9.32;1.70;;;4.50;99.90;;;;;;5033889;28;20053;-55
2022/04/09 01:35:21;;;;;;;5.63;2.10;;;4.50;99.90;;;;;;5032758;28;20033;-55
2022/04/09 01:37:47;;;;;;;8.25;1.60;;;4.50;99.90;;;;;;5043365;28;20497;-55
2022/04/09 01:40:12;;;;;;;9.98;1.88;;;4.50;99.90;;;;;;5050206;28;20067;-55
2022/04/09 01:42:38;;;;;;;6.53;1.60;;;4.50;99.90;;;;;;5043745;28;20038;-55
2022/04/09 01:45:07;;;;;;;7.25;1.80;;;4.40;99.90;;;;;;5050468;28;20037;-55
2022/04/09 01:47:34;;;;;;;9.93;2.17;;;4.40;99.90;;;;;;5031693;28;20040;-55
2022/04/09 01:50:00;;;;;;;7.00;1.48;;;4.40;99.90;;;;;;5051492;28;20087;-55
2022/04/09 01:52:25;;;;;;;8.95;1.70;;;4.30;99.90;;;;;;5048987;28;20072;-55
2022/04/09 01:54:51;;;;;;;10.80;1.98;;;4.30;99.90;;;;;;5051808;28;20049;-53
2022/04/09 01:57:16;;;;;;;8.27;1.90;;;4.30;99.90;;;;;;5055169;28;20123;-55
2022/04/09 01:59:44;;;;;;;9.18;1.73;;;4.30;99.90;;;;;;5037818;28;20083;-55
2022/04/09 02:02:10;;;;;;;13.02;2.15;;;4.30;99.90;;;;;;5046337;28;20044;-55
2022/04/09 02:04:36;;;;;;;10.18;2.05;;;4.40;99.90;;;;;;5055473;28;20041;-54
2022/04/09 02:07:01;;;;;;;10.35;1.70;;;4.40;99.90;;;;;;5055036;28;20382;-55
2022/04/09 02:09:27;;;;;;;7.43;1.90;;;4.40;99.90;;;;;;5054780;28;20450;-54
2022/04/09 02:11:52;;;;;;;8.50;1.60;;;4.40;99.90;;;;;;5034979;28;20092;-55
2022/04/09 02:14:18;;;;;;;8.55;1.50;;;4.40;99.90;;;;;;5036537;28;20132;-54
2022/04/09 02:16:44;;;;;;;7.95;2.17;;;4.40;99.90;;;;;;5055062;28;20037;-55
2022/04/09 02:19:10;;;;;;;7.40;2.08;;;4.40;99.90;;;;;;5055293;28;20062;-54
2022/04/09 02:21:36;;;;;;;8.57;1.58;;;4.40;99.90;;;;;;5047470;28;20565;-55
2022/04/09 02:24:02;;;;;;;9.05;1.80;;;4.40;99.90;;;;;;5052178;28;20120;-52
2022/04/09 02:26:28;;;;;;;7.18;1.88;;;4.40;99.90;;;;;;5038825;28;20168;-55
2022/04/09 02:28:53;;;;;;;8.20;1.70;;;4.50;99.90;;;;;;5035009;28;20513;-55
2022/04/09 02:31:20;;;;;;;6.70;1.30;;;4.50;99.90;;;;;;5041571;28;20037;-54
2022/04/09 02:33:46;;;;;;;13.00;1.77;;;4.50;99.90;;;;;;5054911;28;20068;-55
2022/04/09 02:36:12;;;;;;;6.28;1.48;;;4.50;99.90;;;;;;5047490;28;20030;-55
2022/04/09 02:38:39;;;;;;;5.97;1.40;;;4.50;99.90;;;;;;5049432;28;20052;-55
2022/04/09 02:41:06;;;;;;;8.68;1.40;;;4.60;99.90;;;;;;5035783;28;20059;-54
2022/04/09 02:43:32;;;;;;;3.20;1.30;;;4.50;99.90;;;;;;5054571;28;20504;-55
2022/04/09 02:45:57;;;;;;;9.75;1.90;;;4.50;99.90;;;;;;5054355;28;20071;-54
2022/04/09 02:48:23;;;;;;;4.30;1.20;;;4.50;99.90;;;;;;5054307;28;20563;-54
2022/04/09 02:50:49;;;;;;;6.03;1.70;;;4.40;99.90;;;;;;5052541;28;20043;-54
2022/04/09 02:53:14;;;;;;;6.82;1.27;;;4.40;99.90;;;;;;5044834;28;20051;-54
2022/04/09 02:55:40;;;;;;;9.35;1.58;;;4.30;99.90;;;;;;5054352;28;20094;-55
2022/04/09 02:58:06;;;;;;;9.13;1.90;;;4.30;99.90;;;;;;5054245;28;20068;-55
2022/04/09 03:00:32;;;;;;;12.77;1.30;;;4.20;99.90;;;;;;5053589;28;20447;-56
2022/04/09 03:02:57;;;;;;;10.20;1.58;;;4.10;99.90;;;;;;5053542;28;20041;-54
2022/04/09 03:05:23;;;;;;;10.27;1.65;;;4.10;99.90;;;;;;5052686;28;20029;-54
2022/04/09 03:07:49;;;;;;;6.55;1.58;;;4.00;99.90;;;;;;5051912;28;20179;-54
2022/04/09 03:10:14;;;;;;;12.63;1.95;;;4.00;99.90;;;;;;5054075;28;20119;-55
2022/04/09 03:12:48;;;;;;;12.07;1.70;;;4.00;99.90;;;;;;5053084;28;20446;-55
2022/04/09 03:15:14;;;;;;;11.48;1.98;;;4.00;99.90;;;;;;5035944;28;20519;-54
2022/04/09 03:17:40;;;;;;;12.02;2.17;;;3.90;99.90;;;;;;5053630;28;20087;-55
2022/04/09 03:20:06;;;;;;;5.85;1.73;;;3.90;99.90;;;;;;5053230;28;20131;-55
2022/04/09 03:22:32;;;;;;;11.07;2.00;;;4.00;99.90;;;;;;5051501;28;20120;-55
2022/04/09 03:24:59;;;;;;;9.70;1.95;;;4.00;99.90;;;;;;5053242;28;20112;-55
2022/04/09 03:27:25;;;;;;;13.23;2.22;;;4.00;99.90;;;;;;5052671;28;20037;-55
2022/04/09 03:29:51;;;;;;;8.75;1.83;;;4.00;99.90;;;;;;5053601;28;20033;-54
2022/04/09 03:32:17;;;;;;;11.70;1.80;;;4.00;99.90;;;;;;5052334;28;20051;-55
2022/04/09 03:34:43;;;;;;;10.35;1.77;;;4.00;99.90;;;;;;5053369;28;20124;-55
2022/04/09 03:37:09;;;;;;;9.23;2.05;;;4.00;99.90;;;;;;5053371;28;20052;-55
2022/04/09 03:39:36;;;;;;;6.18;1.67;;;3.90;99.90;;;;;;5053330;28;20033;-55
2022/04/09 03:42:02;;;;;;;7.35;1.60;;;3.90;99.90;;;;;;5044007;28;20076;-54
2022/04/09 03:44:27;;;;;;;9.10;1.83;;;3.90;99.90;;;;;;5054001;28;20076;-54
2022/04/09 03:46:58;;;;;;;7.18;1.60;;;3.90;99.90;;;;;;5048989;28;20513;-55
2022/04/09 03:49:24;;;;;;;9.05;1.60;;;3.80;99.90;;;;;;5033326;28;20036;-55
2022/04/09 03:51:49;;;;;;;9.15;1.67;;;3.80;99.90;;;;;;5041598;28;20045;-54
2022/04/09 03:54:15;;;;;;;10.05;1.63;;;3.80;99.90;;;;;;5053062;28;20572;-55
2022/04/09 03:56:43;;;;;;;6.70;1.33;;;3.80;99.90;;;;;;5052048;28;20049;-54
2022/04/09 03:59:09;;;;;;;7.80;1.30;;;3.80;99.90;;;;;;5051935;28;20072;-55
2022/04/09 04:01:35;;;;;;;7.03;1.80;;;3.90;99.90;;;;;;5051239;28;20071;-55
2022/04/09 04:04:01;;;;;;;7.38;1.80;;;4.00;99.90;;;;;;5052702;28;20401;-56
2022/04/09 04:06:26;;;;;;;8.02;1.70;;;3.90;99.90;;;;;;5052588;28;20037;-56
2022/04/09 04:08:52;;;;;;;11.57;1.75;;;3.90;99.90;;;;;;5052824;28;20045;-56
2022/04/09 04:11:17;;;;;;;6.75;1.73;;;3.90;99.90;;;;;;5034165;28;20103;-56
2022/04/09 04:13:43;;;;;;;9.02;1.75;;;3.90;99.90;;;;;;5051479;28;20535;-55
2022/04/09 04:16:09;;;;;;;11.98;1.90;;;3.80;99.90;;;;;;5052333;28;20563;-56
2022/04/09 04:18:36;;;;;;;12.63;2.20;;;3.80;99.90;;;;;;5034254;28;20072;-56
2022/04/09 04:21:02;;;;;;;8.88;2.00;;;3.80;99.90;;;;;;5050980;28;20116;-56
2022/04/09 04:23:27;;;;;;;10.70;2.08;;;3.70;99.90;;;;;;5051947;28;20049;-56
2022/04/09 04:25:53;;;;;;;15.43;1.95;;;3.70;99.90;;;;;;5052459;28;20404;-56
2022/04/09 04:28:18;;;;;;;10.43;2.30;;;3.70;99.90;;;;;;5052151;28;20045;-56
2022/04/09 04:30:44;;;;;;;8.23;2.00;;;3.70;99.90;;;;;;5050062;28;20036;-56
2022/04/09 04:33:09;;;;;;;10.02;1.80;;;3.70;99.90;;;;;;5049109;28;20471;-56
2022/04/09 04:35:35;;;;;;;12.60;2.00;;;3.70;99.90;;;;;;5051730;28;20102;-56
2022/04/09 04:38:00;;;;;;;11.80;2.47;;;3.70;99.90;;;;;;5051249;28;20044;-54
2022/04/09 04:40:26;;;;;;;16.58;1.98;;;3.80;99.90;;;;;;5050406;28;20044;-55
2022/04/09 04:42:51;;;;;;;9.55;1.40;;;3.80;99.90;;;;;;5050799;28;20083;-53
2022/04/09 04:45:17;;;;;;;7.63;1.70;;;3.80;99.90;;;;;;5051884;28;20080;-55
2022/04/09 04:47:46;;;;;;;7.95;1.60;;;3.90;99.90;;;;;;5050173;28;20129;-56
2022/04/09 04:50:13;;;;;;;5.50;1.55;;;3.90;99.90;;;;;;5021135;28;20124;-55
2022/04/09 04:52:38;;;;;;;10.18;1.80;;;3.90;99.90;;;;;;5049554;28;20554;-56
2022/04/09 04:55:04;;;;;;;7.00;1.75;;;4.00;99.90;;;;;;5051447;28;20037;-55
2022/04/09 04:57:46;;;;;;;3.50;1.42;;;4.00;99.90;;;;;;5051216;28;20044;-54
2022/04/09 05:00:15;;;;;;;9.23;1.87;;;4.10;99.90;;;;;;5049809;28;20184;-53
2022/04/09 05:02:41;;;;;;;6.88;1.40;;;4.10;99.90;;;;;;5050125;28;20418;-56
2022/04/09 05:05:07;;;;;;;7.93;1.65;;;4.10;99.90;;;;;;5032868;28;20097;-56
2022/04/09 05:07:44;;;;;;;6.07;1.38;;;4.20;99.90;;;;;;5050997;28;20037;-56
2022/04/09 05:10:11;;;;;;;10.10;2.08;;;4.20;99.90;;;;;;5050245;28;20068;-56
2022/04/09 05:12:37;;;;;;;5.50;1.42;;;4.30;99.90;;;;;;5050502;28;20098;-55
2022/04/09 05:15:05;;;;;;;5.80;1.52;;;4.30;99.90;;;;;;5050557;28;20485;-56
2022/04/09 05:17:30;;;;;;;11.23;1.98;;;4.30;99.90;;;;;;5050137;28;20045;-56
2022/04/09 05:19:56;;;;;;;6.65;1.67;;;4.20;99.90;;;;;;5049720;28;20093;-55
2022/04/09 05:22:22;;;;;;;5.53;1.70;;;4.20;99.90;;;;;;5051004;28;20037;-56
2022/04/09 05:24:47;;;;;;;5.72;1.50;;;4.20;99.90;;;;;;5051091;28;20037;-56
2022/04/09 05:27:13;;;;;;;6.78;1.70;;;4.20;99.90;;;;;;5050689;28;20119;-55
2022/04/09 05:29:39;;;;;;;9.48;2.17;;;4.20;99.90;;;;;;5049866;28;20045;-54
2022/04/09 05:32:05;;;;;;;7.57;1.60;;;4.20;99.90;;;;;;5053680;28;20492;-56
2022/04/09 05:34:31;;;;;;;8.65;1.80;;;4.20;99.90;;;;;;5045095;28;20037;-55
2022/04/09 05:36:57;;;;;;;8.15;1.88;;;4.20;99.90;;;;;;5051966;28;20076;-56
2022/04/09 05:39:22;;;;;;;7.97;1.83;;;4.20;99.90;;;;;;5050848;28;20542;-56
2022/04/09 05:41:48;;;;;;;14.40;2.22;;;4.20;99.90;;;;;;5052655;28;20067;-56
2022/04/09 05:44:14;;;;;;;10.07;1.52;;;4.20;99.90;;;;;;5053276;28;20032;-53
2022/04/09 05:46:39;;;;;;;7.47;1.70;;;4.30;99.90;;;;;;5052086;28;20391;-55
2022/04/09 05:49:05;;;;;;;5.72;1.73;;;4.50;99.90;;;;;;5052391;28;20047;-56
2022/04/09 05:51:30;;;;;;;9.15;2.30;;;4.60;99.90;;;;;;5052352;28;20037;-55
2022/04/09 05:53:56;;;;;;;8.90;1.83;;;4.80;99.90;;;;;;5052849;28;20037;-56
2022/04/09 05:56:22;;;;;;;11.38;1.83;;;5.10;99.90;;;;;;5053393;28;20032;-56
2022/04/09 05:58:48;;;;;;;7.07;1.67;;;5.20;99.90;;;;;;5051537;28;20041;-55
2022/04/09 06:01:13;;;;;;;8.68;1.65;;;5.20;99.90;;;;;;5054045;28;20323;-56
2022/04/09 06:03:39;;;;;;;7.03;1.60;;;5.20;99.90;;;;;;5053632;28;20107;-56
2022/04/09 06:06:05;;;;;;;9.23;1.80;;;5.20;99.90;;;;;;5041321;28;20040;-55
2022/04/09 06:08:33;;;;;;;11.45;1.80;;;5.10;99.90;;;;;;5034254;28;20029;-56
2022/04/09 06:10:59;;;;;;;9.63;1.73;;;5.10;99.90;;;;;;5043310;28;20492;-56
2022/04/09 06:13:25;;;;;;;10.25;1.77;;;5.10;99.90;;;;;;5053770;28;20094;-56
2022/04/09 06:15:51;;;;;;;10.10;1.77;;;5.10;99.90;;;;;;5033505;28;20461;-55
2022/04/09 06:18:16;;;;;;;15.18;2.22;;;5.20;99.90;;;;;;5053088;28;20060;-55
2022/04/09 06:20:42;;;;;;;10.00;2.72;;;5.40;99.90;;;;;;5053357;28;20072;-57
2022/04/09 06:23:08;;;;;;;11.15;2.75;;;5.50;99.90;;;;;;5054741;28;20509;-55
2022/04/09 06:25:34;;;;;;;12.07;2.25;;;5.70;99.90;;;;;;5054390;28;20037;-55
2022/04/09 06:28:00;;;;;;;8.98;2.50;;;5.70;99.90;;;;;;5053942;28;20091;-53
2022/04/09 06:30:26;;;;;;;5.50;1.58;;;5.90;99.90;;;;;;5047593;28;20116;-56
2022/04/09 06:32:51;;;;;;;8.73;1.73;;;6.10;99.90;;;;;;5048695;28;20128;-56
2022/04/09 06:35:18;;;;;;;7.93;1.30;;;6.40;99.90;;;;;;5049793;28;20452;-54
2022/04/09 06:37:43;;;;;;;7.15;1.67;;;6.40;99.90;;;;;;5047522;28;20098;-55
2022/04/09 06:40:09;;;;;;;4.68;1.30;;;6.30;99.90;;;;;;5052899;28;20048;-56
2022/04/09 06:42:36;;;;;;;5.75;1.30;;;6.30;99.90;;;;;;5054002;28;20072;-55
2022/04/09 06:45:02;;;;;;;8.82;1.63;;;6.30;99.90;;;;;;5051530;28;20044;-51
2022/04/09 06:47:28;;;;;;;8.13;1.08;;;6.30;99.90;;;;;;5047356;28;20033;-52
2022/04/09 06:49:54;;;;;;;6.28;1.50;;;6.30;99.90;;;;;;5052884;28;20450;-55
2022/04/09 06:52:19;;;;;;;7.05;1.48;;;6.40;99.90;;;;;;5054407;28;20087;-55
2022/04/09 06:54:45;;;;;;;5.65;1.48;;;6.40;99.90;;;;;;5054032;28;20048;-53
2022/04/09 06:57:10;;;;;;;4.43;1.55;;;6.40;99.90;;;;;;5053745;28;20044;-51
2022/04/09 06:59:36;;;;;;;7.90;1.85;;;6.50;99.90;;;;;;5051600;28;20546;-53
2022/04/09 07:02:01;;;;;;;9.38;1.75;;;6.50;99.90;;;;;;5034598;28;20037;-52
2022/04/09 07:04:27;;;;;;;6.35;1.50;;;6.50;99.90;;;;;;5053180;28;20037;-52
2022/04/09 07:06:53;;;;;;;12.82;1.92;;;6.50;99.90;;;;;;5051152;28;20440;-53
2022/04/09 07:09:18;;;;;;;7.47;1.60;;;6.50;99.90;;;;;;5045563;28;20839;-55
2022/04/09 07:11:44;;;;;;;7.20;1.60;;;6.50;99.90;;;;;;5051010;28;20067;-56
2022/04/09 07:14:09;;;;;;;11.50;1.98;;;6.40;99.90;;;;;;5051557;28;20079;-56
2022/04/09 07:16:35;;;;;;;6.53;1.85;;;6.50;99.90;;;;;;5051038;28;20037;-55
2022/04/09 07:19:01;;;;;;;9.00;1.60;;;6.60;99.90;;;;;;5052374;28;20056;-56
2022/04/09 07:21:27;;;;;;;12.82;1.63;;;6.70;99.90;;;;;;5049365;28;20037;-55
2022/04/09 07:23:53;;;;;;;9.60;1.80;;;6.70;99.90;;;;;;5051304;28;20033;-54
2022/04/09 07:26:20;;;;;;;8.95;1.80;;;6.70;99.90;;;;;;5051927;28;20048;-56
2022/04/09 07:28:46;;;;;;;11.65;1.98;;;6.70;99.90;;;;;;5052560;28;20504;-56
2022/04/09 07:31:12;;;;;;;8.07;1.70;;;6.70;99.90;;;;;;5052371;28;20078;-56
2022/04/09 07:33:37;;;;;;;11.68;1.42;;;6.70;99.90;;;;;;5052360;28;20045;-55
2022/04/09 07:36:04;;;;;;;7.13;1.60;;;6.80;99.90;;;;;;5051814;28;20417;-56
2022/04/09 07:38:30;;;;;;;11.23;1.98;;;6.90;99.90;;;;;;5050838;28;20056;-56
2022/04/09 07:40:55;;;;;;;9.07;1.40;;;6.90;99.90;;;;;;5051052;28;20033;-56
2022/04/09 07:43:21;;;;;;;8.18;1.70;;;6.80;99.90;;;;;;5049856;28;20179;-56
2022/04/09 07:45:47;;;;;;;11.88;2.08;;;6.70;99.90;;;;;;5049162;28;20421;-56
2022/04/09 07:48:13;;;;;;;8.40;2.58;;;6.70;99.90;;;;;;5051449;28;20543;-58
2022/04/09 07:50:39;;;;;;;12.32;2.20;;;6.70;99.90;;;;;;5051341;28;20033;-55
2022/04/09 07:53:05;;;;;;;9.48;2.10;;;6.70;99.90;;;;;;5048515;28;20175;-56
2022/04/09 07:55:30;;;;;;;11.52;2.17;;;6.80;99.90;;;;;;5050805;28;20044;-55
2022/04/09 07:57:56;;;;;;;9.73;2.17;;;6.90;99.90;;;;;;5050968;28;20039;-56
2022/04/09 08:00:23;;;;;;;8.57;1.70;;;7.10;99.90;;;;;;5051458;28;20041;-55
2022/04/09 08:02:49;;;;;;;5.40;1.58;;;7.20;99.90;;;;;;5047876;28;20039;-56
2022/04/09 08:05:17;;;;;;;8.82;2.10;;;7.30;99.90;;;;;;5049448;28;20041;-60
2022/04/09 08:07:42;;;;;;;6.28;1.67;;;7.40;99.90;;;;;;5050218;28;20041;-55
2022/04/09 08:10:09;;;;;;;6.63;1.55;;;7.60;99.90;;;;;;5048759;28;20108;-55
2022/04/09 08:12:34;;;;;;;6.47;1.45;;;7.70;99.90;;;;;;5051129;28;20045;-56
2022/04/09 08:15:00;;;;;;;6.93;1.23;;;7.80;99.90;;;;;;5050376;28;20037;-54
2022/04/09 08:17:26;;;;;;;13.43;2.22;;;7.90;99.90;;;;;;5049690;28;20601;-56
2022/04/09 08:19:51;;;;;;;3.63;1.27;;;8.00;99.90;;;;;;5050512;28;20440;-56
2022/04/09 08:22:18;;;;;;;7.55;1.50;;;8.10;99.90;;;;;;5050267;28;20037;-56
2022/04/09 08:24:45;;;;;;;6.82;1.60;;;8.20;99.90;;;;;;5048181;28;20509;-55
2022/04/09 08:27:11;;;;;;;7.03;2.40;;;8.20;99.90;;;;;;5048873;28;20037;-55
2022/04/09 08:29:37;;;;;;;8.73;1.48;;;8.20;99.90;;;;;;5050212;28;20037;-55
2022/04/09 08:32:04;;;;;;;7.30;1.55;;;8.10;99.90;;;;;;5048556;28;20037;-54
2022/04/09 08:34:33;;;;;;;7.18;1.42;;;8.00;99.90;;;;;;5048448;28;20048;-54
2022/04/09 08:36:59;;;;;;;6.85;1.65;;;8.10;99.90;;;;;;5048748;28;20040;-55
2022/04/09 08:39:25;;;;;;;4.93;1.58;;;8.10;99.90;;;;;;5042925;28;20045;-56
2022/04/09 08:41:53;;;;;;;11.57;1.80;;;8.10;99.90;;;;;;5044191;28;20048;-53
2022/04/09 08:44:19;;;;;;;5.95;1.60;;;8.10;99.90;;;;;;5034312;28;20033;-55
2022/04/09 08:46:47;;;;;;;7.53;1.67;;;8.20;99.90;;;;;;5046535;28;20480;-55
2022/04/09 08:49:13;;;;;;;9.82;1.90;;;8.30;99.90;;;;;;5042923;28;20033;-55
2022/04/09 08:51:39;;;;;;;9.13;1.70;;;8.30;99.90;;;;;;5049157;28;20037;-55
2022/04/09 08:54:05;;;;;;;12.50;1.92;;;8.30;99.90;;;;;;5049233;28;20037;-55
2022/04/09 08:56:35;;;;;;;6.60;1.00;;;8.20;99.90;;;;;;5048465;28;20607;-56
2022/04/09 08:59:02;;;;;;;2.55;1.08;;;7.80;99.90;;;;;;5047247;28;20037;-56
2022/04/09 09:01:29;;;;;;;4.95;1.10;;;7.30;99.90;;;;;;5031401;28;20045;-56
2022/04/09 09:03:57;;;;;;;3.38;0.90;;;6.80;99.90;;;;;;5046336;28;20789;-55
2022/04/09 09:06:27;;;;;;;3.53;1.15;;;6.30;99.90;;;;;;5051442;28;20083;-56
2022/04/09 09:08:54;;;;;;;5.97;1.52;;;6.10;99.90;;;;;;5027500;28;20481;-55
2022/04/09 09:11:21;;;;;;;8.77;1.73;;;5.90;99.90;;;;;;5051790;28;20416;-55
2022/04/09 09:13:48;;;;;;;6.53;2.17;;;6.00;99.90;;;;;;5051602;28;20554;-56
2022/04/09 09:16:28;;;;;;;8.57;2.03;;;6.20;99.90;;;;;;5051517;28;20059;-55
2022/04/09 09:19:07;;;;;;;6.18;1.42;;;6.40;99.90;;;;;;5053590;28;20041;-54
2022/04/09 09:21:33;;;;;;;11.65;1.58;;;6.70;99.90;;;;;;5052721;28;20048;-54
2022/04/09 09:24:07;;;;;;;5.28;1.38;;;7.00;99.90;;;;;;5053428;28;20029;-55
2022/04/09 09:26:37;;;;;;;4.90;1.48;;;7.20;99.90;;;;;;5050314;28;20041;-55
2022/04/09 09:29:02;;;;;;;9.60;1.52;;;7.40;99.90;;;;;;5048978;28;20052;-54
2022/04/09 09:31:42;;;;;;;9.13;1.70;;;7.60;99.90;;;;;;5051813;28;20040;-55
2022/04/09 09:34:09;;;;;;;2.15;1.00;;;7.90;99.90;;;;;;5051592;28;20114;-55
2022/04/09 09:36:36;;;;;;;6.28;1.35;;;8.10;99.90;;;;;;5051150;28;20512;-56
2022/04/09 09:39:03;;;;;;;7.18;1.42;;;8.30;99.90;;;;;;5052258;28;20045;-55
2022/04/09 09:41:29;;;;;;;5.72;1.30;;;8.40;99.90;;;;;;5052892;28;20041;-54
2022/04/09 09:44:05;;;;;;;6.65;1.20;;;8.50;99.90;;;;;;5053047;28;20043;-56
2022/04/09 09:46:31;;;;;;;5.82;1.52;;;8.60;99.90;;;;;;5053104;28;20084;-55
2022/04/09 09:48:57;;;;;;;5.50;1.20;;;8.70;99.90;;;;;;5042058;28;20065;-55
2022/04/09 09:51:24;;;;;;;7.10;1.38;;;8.60;99.90;;;;;;5051652;28;20432;-54
2022/04/09 09:53:50;;;;;;;9.50;2.00;;;8.50;99.90;;;;;;5032205;28;20136;-55
2022/04/09 09:56:41;;;;;;;8.57;1.20;;;8.60;99.90;;;;;;5040995;28;20120;-55
2022/04/09 09:59:08;;;;;;;11.57;1.83;;;8.80;99.90;;;;;;5045693;28;20067;-54
2022/04/09 10:01:38;;;;;;;10.95;1.90;;;9.00;99.90;;;;;;5053818;28;20037;-55
2022/04/09 10:04:04;;;;;;;11.00;1.90;;;9.00;99.90;;;;;;5046315;28;20686;-55
2022/04/09 10:06:32;;;;;;;9.05;1.58;;;9.10;99.90;;;;;;5045370;28;20029;-54
2022/04/09 10:08:59;;;;;;;10.18;2.33;;;9.10;99.90;;;;;;5034178;28;20033;-53
2022/04/09 10:11:26;;;;;;;8.65;2.00;;;9.00;99.90;;;;;;5051208;28;20121;-54
2022/04/09 10:13:56;;;;;;;13.35;2.22;;;8.80;99.90;;;;;;5052691;28;20381;-54
2022/04/09 10:16:22;;;;;;;12.15;2.40;;;8.80;99.90;;;;;;5050048;28;20036;-54
2022/04/09 10:18:49;;;;;;;7.57;1.88;;;8.80;99.90;;;;;;5048946;28;20136;-54
2022/04/09 10:21:16;;;;;;;9.20;2.28;;;8.90;99.90;;;;;;5051003;28;20029;-55
2022/04/09 10:23:43;;;;;;;5.68;1.30;;;9.10;99.90;;;;;;5042120;28;20068;-55
2022/04/09 10:26:10;;;;;;;5.97;1.30;;;9.20;99.90;;;;;;5040233;28;20331;-55
2022/04/09 10:28:38;;;;;;;11.02;1.60;;;9.20;99.90;;;;;;5025447;28;21381;-55
2022/04/09 10:31:22;;;;;;;10.57;1.50;;;9.20;99.90;;;;;;5040099;28;20033;-54
2022/04/09 10:33:57;;;;;;;5.80;1.65;;;9.00;99.90;;;;;;5051558;28;20049;-54
2022/04/09 10:36:41;;;;;;;7.53;1.85;;;8.80;99.90;;;;;;5050197;28;20053;-55
2022/04/09 10:39:22;;;;;;;13.23;1.80;;;8.40;99.90;;;;;;5051005;28;20037;-53
2022/04/09 10:41:49;;;;;;;9.98;1.70;;;8.30;99.90;;;;;;5049090;28;20040;-55
2022/04/09 10:44:43;;;;;;;12.20;1.83;;;8.10;99.90;;;;;;5049132;28;20519;-55
2022/04/09 10:47:11;;;;;;;13.68;2.20;;;8.10;99.90;;;;;;5046851;28;20571;-55
2022/04/09 10:49:37;;;;;;;7.75;1.42;;;8.20;99.90;;;;;;5048853;28;20072;-55
2022/04/09 10:52:14;;;;;;;7.57;1.55;;;8.40;99.90;;;;;;5053210;28;20067;-55
2022/04/09 10:55:00;;;;;;;4.10;1.00;;;8.50;99.90;;;;;;5051979;28;20049;-55
2022/04/09 10:57:25;;;;;;;4.95;1.13;;;8.50;99.90;;;;;;5033043;28;20059;-55
2022/04/09 10:59:58;;;;;;;4.95;0.90;;;8.50;99.90;;;;;;5051742;28;20495;-54
2022/04/09 11:02:25;;;;;;;3.55;1.10;;;8.60;99.90;;;;;;5049020;28;20045;-55
2022/04/09 11:04:52;;;;;;;9.38;1.40;;;8.70;99.90;;;;;;5033036;28;20041;-54
2022/04/09 11:07:22;;;;;;;7.38;1.10;;;8.80;99.90;;;;;;5051305;28;20047;-54
2022/04/09 11:09:59;;;;;;;7.22;1.50;;;9.00;99.90;;;;;;5049937;28;20047;-54
2022/04/09 11:12:30;;;;;;;6.25;1.20;;;9.00;99.90;;;;;;5045646;28;20037;-55
2022/04/09 11:15:14;;;;;;;9.40;1.35;;;8.90;99.90;;;;;;5049974;28;20037;-55
2022/04/09 11:17:47;;;;;;;7.25;1.83;;;8.60;99.90;;;;;;5049662;28;20470;-55
2022/04/09 11:20:14;;;;;;;;;;;8.40;99.90;;;;;;5050724;28;20071;-54
2022/04/09 11:22:45;;;;;;;4.25;0.85;;;8.10;99.90;;;;;;5051156;28;19963;-54
2022/04/09 11:25:18;;;;;;;4.85;1.55;;;7.80;99.90;;;;;;5050995;28;20037;-55
2022/04/09 11:27:44;;;;;;;8.88;1.45;;;7.80;99.90;;;;;;5047961;28;20033;-55
2022/04/09 11:30:10;;;;;;;11.25;1.45;;;7.70;99.90;;;;;;5045755;28;20280;-55
2022/04/09 11:32:35;;;;;;;10.32;1.30;;;7.60;99.90;;;;;;5051528;28;20497;-55
2022/04/09 11:35:08;;;;;;;7.85;1.48;;;7.70;99.90;;;;;;5046113;28;20092;-55
2022/04/09 11:37:42;;;;;;;4.80;1.30;;;7.90;99.90;;;;;;5045636;28;20045;-54
2022/04/09 11:40:09;;;;;;;2.58;0.80;;;8.00;99.90;;;;;;5050943;28;20047;-56
2022/04/09 11:42:52;;;;;;;1.05;0.47;;;7.90;99.90;;;;;;5048358;28;20055;-55
2022/04/09 11:45:23;;;;;;;1.75;0.73;;;7.50;99.90;;;;;;5050408;28;20039;-54
2022/04/09 11:47:50;;;;;;;2.80;0.70;;;7.30;99.90;;;;;;5048017;28;20036;-55
2022/04/09 11:50:16;;;;;;;1.30;0.50;;;7.10;99.90;;;;;;5052050;28;20028;-55
2022/04/09 11:52:42;;;;;;;2.55;0.60;;;7.00;99.90;;;;;;5048695;28;20041;-55
2022/04/09 11:55:15;;;;;;;2.83;0.90;;;6.90;99.90;;;;;;5049897;28;20045;-55
2022/04/09 11:57:48;;;;;;;;;;;7.00;99.90;;;;;;5046231;28;20076;-54
2022/04/09 12:00:13;;;;;;;;;;;7.00;99.90;;;;;;5050519;28;20011;-54
2022/04/09 12:02:39;;;;;;;3.53;1.00;;;6.90;99.90;;;;;;5048851;28;20023;-54
2022/04/09 12:05:10;;;;;;;3.17;0.73;;;6.90;99.90;;;;;;5032437;28;20461;-53
2022/04/09 12:07:43;;;;;;;3.25;0.65;;;6.80;99.90;;;;;;5051670;28;20045;-53
2022/04/09 12:10:22;;;;;;;3.38;1.00;;;6.70;99.90;;;;;;5050919;28;20033;-51
2022/04/09 12:13:00;;;;;;;4.35;0.90;;;6.60;99.90;;;;;;5042832;28;20045;-52
2022/04/09 12:15:28;;;;;;;3.75;1.00;;;6.50;99.90;;;;;;5050604;28;20083;-52
2022/04/09 12:17:54;;;;;;;5.90;1.13;;;6.40;99.90;;;;;;5032919;28;20946;-53
2022/04/09 12:20:49;;;;;;;6.35;1.48;;;6.40;99.90;;;;;;5050873;28;20037;-53
2022/04/09 12:23:15;;;;;;;4.20;1.13;;;6.40;99.90;;;;;;5025190;28;20057;-50
2022/04/09 12:25:46;;;;;;;7.05;1.30;;;6.50;99.90;;;;;;5049527;28;20603;-53
2022/04/09 12:28:22;;;;;;;6.53;1.63;;;6.50;99.90;;;;;;5050507;28;20075;-51
2022/04/09 12:30:49;;;;;;;7.95;1.20;;;6.60;99.90;;;;;;5047440;28;20449;-51
2022/04/09 12:33:15;;;;;;;5.85;1.23;;;6.80;99.90;;;;;;5049050;28;20090;-53
2022/04/09 12:35:41;;;;;;;6.97;1.10;;;6.90;99.90;;;;;;5048308;28;20456;-52
2022/04/09 12:38:07;;;;;;;4.53;0.52;;;6.80;99.90;;;;;;5044467;28;20048;-52
2022/04/09 12:40:33;;;;;;;5.60;1.05;;;6.70;99.90;;;;;;5038113;28;20037;-53
2022/04/09 12:43:00;;;;;;;4.28;1.20;;;6.50;99.90;;;;;;5050519;28;20044;-52
2022/04/09 12:45:28;;;;;;;4.30;1.35;;;6.30;99.90;;;;;;5050935;28;20044;-52
2022/04/09 12:47:57;;;;;;;3.53;0.90;;;6.30;99.90;;;;;;5033143;28;20541;-51
2022/04/09 12:50:31;;;;;;;2.38;0.93;;;6.30;99.90;;;;;;5042434;28;20041;-52
2022/04/09 12:52:59;;;;;;;4.13;1.00;;;6.50;99.90;;;;;;5030131;28;20045;-49
2022/04/09 12:55:25;;;;;;;4.50;1.30;;;6.70;99.90;;;;;;5050418;28;20056;-52
2022/04/09 12:57:52;;;;;;;5.10;1.38;;;7.00;99.90;;;;;;5049466;28;20047;-51